• Join FlightAware (Why Join?)
  • Login
  • US Flag 
01:27AM EDT


 

Airport Tracker/Info


-or-


 

Live Flight TrackerFlight Track Log ✈ N580HC ✈ 05-Mar-2014 ✈ KSDL - KDTO

Flight Track Log - Related Links

Times and Time Zones

All times are in EST time to prevent confusion due to time zone crossing. See the N580HC flight status page for this flight to view local times or setup timezone preferences in your user account.

Time Position Orientation Groundspeed Altitude Reporting Facility
EST Latitude Longitude Course Direction KTS MPH feet Rate Location/Type
05:00PM 33.6314 -112.0128 295° West 225 259 5,800  Level Albuquerque Center
05:01PM 33.6794 -111.9814 29° Northeast 202 232 7,800 2,220 Climbing Albuquerque Center
05:02PM 33.6836 -111.9075 86° East 225 259 10,500 2,760 Climbing Albuquerque Center
05:03PM 33.6844 -111.8086 89° East 250 288 13,600 2,700 Climbing Albuquerque Center
05:04PM 33.6850 -111.7178 90° East 273 314 16,200 2,460 Climbing Albuquerque Center
05:05PM 33.6861 -111.6200 89° East 291 335 18,700 2,400 Climbing Albuquerque Center
05:06PM 33.6869 -111.5189 89° East 305 351 21,200 2,460 Climbing Albuquerque Center
05:07PM 33.6875 -111.3897 90° East 323 372 23,800 2,220 Climbing Albuquerque Center
05:08PM 33.6892 -111.2717 89° East 354 407 25,800 1,980 Climbing Albuquerque Center
05:09PM 33.7242 -111.1644 69° East 347 399 27,900 1,920 Climbing Albuquerque Center
05:10PM 33.7639 -111.0597 65° Northeast 347 399 29,800 1,680 Climbing Albuquerque Center
05:11PM 33.8011 -110.9503 68° East 353 406 31,400 1,740 Climbing Albuquerque Center
05:12PM 33.8494 -110.8164 66° East 362 417 33,400 1,740 Climbing Albuquerque Center
05:13PM 33.8881 -110.7047 67° East 363 418 35,100 1,560 Climbing Albuquerque Center
05:14PM 33.9264 -110.5947 67° East 360 414 36,700 1,560 Climbing Albuquerque Center
05:15PM 33.9639 -110.4886 67° East 352 405 38,400 1,500 Climbing Albuquerque Center
05:16PM 34.0014 -110.3828 67° East 336 387 39,900 720 Climbing Albuquerque Center
05:17PM 34.0356 -110.2800 68° East 332 382 40,000  Climbing Albuquerque Center
05:18PM 34.0747 -110.1700 67° East 347 399 40,000  Level Albuquerque Center
05:19PM 34.1194 -110.0431 67° East 372 428 40,000  Level Albuquerque Center
05:20PM 34.1694 -109.8972 67° East 409 471 40,000 240 Level Albuquerque Center
05:21PM 34.2136 -109.7664 68° East 430 495 40,600 480 Climbing Albuquerque Center
05:22PM 34.2658 -109.6153 67° East 435 501 41,000 180 Climbing Albuquerque Center
05:23PM 34.3111 -109.4814 68° East 442 509 41,000  Level Albuquerque Center
05:24PM 34.3647 -109.3233 68° East 451 519 41,000  Level Albuquerque Center
05:25PM 34.4111 -109.1856 68° East 457 526 41,000  Level Albuquerque Center
05:26PM 34.4317 -109.0064 82° East 487 560 41,000  Level Albuquerque Center
05:27PM 34.4347 -108.8503 89° East 491 565 41,000  Level Albuquerque Center
05:29PM 34.4414 -108.6669 87° East 489 563 41,000  Level Albuquerque Center
05:30PM 34.4467 -108.5106 88° East 487 560 41,000  Level Albuquerque Center
05:31PM 34.4519 -108.3453 88° East 487 560 41,000  Level Albuquerque Center
05:32PM 34.4561 -108.1817 88° East 488 562 41,000  Level Albuquerque Center
05:33PM 34.4614 -108.0194 88° East 487 560 41,000  Level Albuquerque Center
05:34PM 34.4664 -107.8242 88° East 485 558 41,000  Level Albuquerque Center
05:35PM 34.4703 -107.6600 88° East 487 560 41,000  Level Albuquerque Center
05:36PM 34.4731 -107.4978 89° East 487 560 41,000  Level Albuquerque Center
05:37PM 34.4772 -107.3367 88° East 483 556 41,000  Level Albuquerque Center
05:38PM 34.4831 -107.1431 88° East 487 560 41,000  Level Albuquerque Center
05:39PM 34.4861 -106.9803 89° East 486 559 41,000  Level Albuquerque Center
05:40PM 34.4889 -106.8169 89° East 487 560 41,000  Level Albuquerque Center
05:41PM 34.4917 -106.6411 89° East 486 559 41,000  Level Albuquerque Center
05:42PM 34.4931 -106.4908 89° East 489 563 41,000  Level Albuquerque Center
05:43PM 34.4964 -106.3269 89° East 490 564 41,000  Level Albuquerque Center
05:44PM 34.4992 -106.1331 89° East 482 555 41,000  Level Albuquerque Center
05:45PM 34.4997 -105.9692 90° East 483 556 41,000  Level Albuquerque Center
05:46PM 34.5011 -105.8042 89° East 485 558 41,000  Level Albuquerque Center
05:47PM 34.5028 -105.6403 89° East 484 557 41,000  Level Albuquerque Center
05:48PM 34.5039 -105.4778 89° East 481 554 41,000  Level Albuquerque Center
05:49PM 34.5053 -105.3136 89° East 483 556 41,000  Level Albuquerque Center
05:50PM 34.5064 -105.1511 89° East 481 554 41,000  Level Albuquerque Center
05:51PM 34.5067 -104.9603 90° East 482 555 41,000  Level Albuquerque Center
05:52PM 34.5075 -104.7972 90° East 482 555 41,000  Level Albuquerque Center
05:53PM 34.5067 -104.6331 90° East 483 556 41,000  Level Albuquerque Center
05:54PM 34.5075 -104.4686 90° East 485 558 41,000  Level Albuquerque Center
05:55PM 34.5067 -104.3042 90° East 486 559 41,000  Level Albuquerque Center
05:56PM 34.5061 -104.1378 90° East 489 563 41,000  Level Albuquerque Center
05:57PM 34.5061 -103.9461 90° East 487 560 41,000  Level Albuquerque Center
05:58PM 34.5050 -103.7819 90° East 486 559 41,000  Level Albuquerque Center
05:59PM 34.5044 -103.6214 90° East 479 551 41,000  Level Albuquerque Center
06:01PM 34.5025 -103.4656 91° East 466 536 41,000  Level Albuquerque Center
06:02PM 34.5003 -103.3103 91° East 460 529 41,000  Level Albuquerque Center
06:03PM 34.4994 -103.1572 90° East 454 522 41,000  Level Albuquerque Center
06:04PM 34.4967 -102.9875 91° East 449 517 41,000  Level Albuquerque Center
06:05PM 34.4950 -102.8289 91° East 448 516 41,000  Level Albuquerque Center
06:06PM 34.4781 -102.6842 98° East 457 526 41,000  Level Albuquerque Center
06:07PM 34.4633 -102.5294 97° East 464 534 41,000  Level Albuquerque Center
06:08PM 34.4469 -102.3744 97° East 465 535 41,000  Level Albuquerque Center
06:09PM 34.4269 -102.1853 97° East 471 542 41,000  Level Albuquerque Center
06:10PM 34.4097 -102.0292 98° East 472 543 41,000  Level Albuquerque Center
06:11PM 34.3928 -101.8719 97° East 473 544 41,000  Level Albuquerque Center
06:12PM 34.3758 -101.7156 97° East 473 544 41,000  Level Albuquerque Center
06:13PM 34.3619 -101.5894 98° East 471 542 41,000  Level Fort Worth Center
06:14PM 34.3406 -101.4003 98° East 472 543 41,000  Level Fort Worth Center
06:15PM 34.3225 -101.2431 98° East 473 544 41,000  Level Fort Worth Center
06:16PM 34.3050 -101.0878 98° East 472 543 41,000  Level Fort Worth Center
06:17PM 34.2875 -100.9336 98° East 471 542 41,000  Level Fort Worth Center
06:18PM 34.2689 -100.7806 98° East 468 539 41,000  Level Fort Worth Center
06:19PM 34.2289 -100.6011 105° East 471 542 41,000  Level Fort Worth Center
06:20PM 34.1931 -100.4508 106° East 468 539 41,000 -420 Level Fort Worth Center
06:21PM 34.1617 -100.3222 106° East 468 539 40,200 -1,020 Descending Fort Worth Center
06:22PM 34.1189 -100.1372 106° East 471 542 38,900 -1,080 Descending Fort Worth Center
06:23PM 34.0828 -99.9853 106° East 471 542 38,000 -1,200 Descending Fort Worth Center
06:24PM 34.0475 -99.8406 106° East 454 522 36,500 -1,560 Descending Fort Worth Center
06:25PM 34.0122 -99.6939 106° East 454 522 34,800 -1,680 Descending Fort Worth Center
06:26PM 33.9767 -99.5436 106° East 461 531 33,100 -1,620 Descending Fort Worth Center
06:27PM 33.9417 -99.4014 106° East 448 516 31,500 -1,800 Descending Fort Worth Center
06:28PM 33.9008 -99.2347 106° East 434 499 29,500 -1,800 Descending Fort Worth Center
06:29PM 33.8650 -99.0889 106° East 448 516 27,800 -1,740 Descending Fort Worth Center
06:30PM 33.8264 -98.9383 107° East 449 517 26,000 -1,680 Descending Fort Worth Center
06:31PM 33.7944 -98.8022 106° East 446 513 24,400 -1,080 Descending Fort Worth Center
06:32PM 33.7561 -98.6550 107° East 445 512 23,800 -1,320 Descending Fort Worth Center
06:33PM 33.7186 -98.5036 107° East 434 499 21,700 -1,920 Descending Fort Worth Center
06:34PM 33.6831 -98.3636 107° East 421 484 19,900 -1,740 Descending Fort Worth Center
06:36PM 33.6489 -98.2281 107° East 408 470 18,200 -1,620 Descending Fort Worth Center
06:37PM 33.6139 -98.0914 107° East 409 471 16,600 -1,680 Descending Fort Worth Center
06:38PM 33.5814 -97.9625 107° East 390 449 14,800 -1,560 Descending Fort Worth Center
06:39PM 33.5464 -97.8369 108° East 390 449 13,400 -1,380 Descending Fort Worth Center
06:40PM 33.5197 -97.7328 107° East 327 376 12,000 -1,320 Descending Fort Worth Center
06:41PM 33.4922 -97.6308 108° East 305 351 10,700 -1,320 Descending Fort Worth Center
06:42PM 33.4639 -97.5381 110° East 303 349 9,300 -1,740 Descending Fort Worth Center
06:43PM 33.4039 -97.4642 134° Southeast 290 334 7,200 -2,040 Descending Fort Worth Center
06:44PM 33.3511 -97.3947 132° Southeast 286 329 5,200 -1,980 Descending Fort Worth Center
06:45PM 33.3008 -97.3289 132° Southeast 274 315 3,200 -1,440 Descending Fort Worth Center
06:46PM 33.2500 -97.2667 134° Southeast 240 276 2,300 -480 Descending Dallas / Fort Worth TRACON
06:47PM 33.2000 -97.2333 151° Southeast 174 200 2,300 -420 Level Dallas / Fort Worth TRACON
06:48PM 33.1667 -97.2167 157° South 142 163 1,500 -840 Descending Dallas / Fort Worth TRACON
06:51PM 33.2000 -97.1833 129° Southeast  Level FlightAware Approximate
06:58PM 33.2021 -97.1980 129° Southeast  Level Estimated